Terminal Aerodrome Forecast
Issued by NWS

Home | Current Version | Previous Version | Graphics & Text | Print | Product List | Glossary On
Versions: 1 2 3 4 5 6 7 8 9 10 11 12 13 14 15 16 17 18 19 20 21 22 23 24 25 26
000
FTUS43 KGRB 270936 AAA
TAFMTW
TAF AMD
KMTW 270936Z 2710/2806 25014G22KT P6SM BKN018 OVC024
      TEMPO 2710/2712 -RA
     FM271200 27014G22KT P6SM SCT018 BKN035
      TEMPO 2712/2716 5SM -SHRA BR BKN018
     FM271600 28011G18KT P6SM SCT020 BKN035
     FM272000 18010KT P6SM BKN035
     FM280100 17007KT P6SM SCT035 SCT080=

USA.gov is the U.S. government's official web portal to all federal, state and local government web resources and services.